Buoy 21955

sailwx.info

Track history (hours):
 
Tides and Currents Weather Stations Pressure Air Temp Water Temp Dewpoint Dewpoint Depression Visibility Wind Speed Wind Dir Waves Ship Positions

Drifting buoy 21955

Last reported at 2018-May-22 18:00 UTC. Time now 2018-May-27 21:17 UTC.
Position N 60°16' W 146°32'.

Barometer 1004.7 mb
Water temperature 6.6 ° C

Date/timePositionNaut miles runAvg speedWind from/ knotsBaromVisibWave heightAir tempDewpointWater temp
2018-May-22 18:00N 60°16' W 146°32'0 0.0 1004.7 6.6
2018-May-22 17:00N 60°16' W 146°32'0 0.0 1004.2 6.5
2018-May-22 16:00N 60°16' W 146°32'0 0.0 1003.4 6.4
2018-May-22 15:00N 60°16' W 146°32'0 0.0 1003.1 6.2
2018-May-22 14:00N 60°16' W 146°32'0 0.0 1002.7 6.2
2018-May-22 13:00N 60°16' W 146°32'0 0.0 1002.7 6.2
2018-May-22 12:00N 60°16' W 146°32'0 0.0 1002.2 6.1
2018-May-22 11:00N 60°16' W 146°32'0 0.0 1001.9 6.2
2018-May-22 06:00N 60°16' W 146°32'0 0.3 1000.7 7.1
2018-May-22 05:00N 60°16' W 146°32'0 0.0 999.2 7.1
2018-May-22 04:00N 60°16' W 146°32'0 0.0 998.4 7.1
2018-May-22 03:00N 60°16' W 146°32'0 0.3 997.3 7.0
2018-May-22 02:00N 60°16' W 146°32'0 0.0 996.5 7.1
2018-May-22 01:00N 60°16' W 146°32'0 0.0 996.0 7.0
2018-May-22 00:00N 60°16' W 146°32'0 0.0 995.5 6.7
2018-May-21 23:00N 60°16' W 146°32'0 0.3 995.3 6.5
2018-May-21 22:00N 60°16' W 146°31'0 0.0 995.7 6.2
2018-May-21 21:00N 60°16' W 146°31'0 0.1 996.1 5.9
2018-May-21 19:00N 60°16' W 146°32'0 0.0 996.9 5.8
2018-May-21 18:00N 60°16' W 146°32'0 0.0 997.2 5.8
2018-May-21 17:00N 60°16' W 146°32'0 0.0 997.9 5.8
2018-May-21 16:00N 60°16' W 146°32'0 0.0 997.9 5.8
2018-May-21 15:00N 60°16' W 146°32'0 0.0 997.9 6.3
2018-May-21 14:00N 60°16' W 146°32'0 0.0 997.4 5.9
2018-May-21 13:00N 60°16' W 146°32'1 0.9 997.5 5.8
2018-May-21 12:00N 60°16' W 146°34'1 0.9 998.4 6.0
2018-May-21 11:00N 60°16' W 146°32'0 0.0 999.1 6.4
2018-May-21 06:00N 60°16' W 146°32'0 0.0 999.8 6.9
2018-May-21 05:00N 60°16' W 146°32'0 0.3 998.5 6.6
2018-May-21 04:00N 60°16' W 146°31'0 0.3 998.8 6.8
2018-May-21 03:00N 60°16' W 146°32'0 0.0 1000.0 6.9
2018-May-21 02:00N 60°16' W 146°32'0 0.0 1000.8 6.8
2018-May-21 01:00N 60°16' W 146°32'0 0.0 1001.7 6.9
2018-May-21 00:00N 60°16' W 146°32'0 0.0 1002.7 6.7
2018-May-20 23:00N 60°16' W 146°32'0 0.0 1003.5 6.9
2018-May-20 22:00N 60°16' W 146°32'0 0.0 1003.9 7.1
2018-May-20 20:00N 60°16' W 146°32'0 0.0 1004.2 7.1
2018-May-20 19:00N 60°16' W 146°32'0 0.0 1004.5 6.9
2018-May-20 17:00N 60°16' W 146°32'0 0.0 1005.3 6.7
2018-May-20 16:00N 60°16' W 146°32'0 0.0 1005.2 6.9
2018-May-20 15:00N 60°16' W 146°32'1 0.6 1005.6 6.7
2018-May-20 14:00N 60°17' W 146°32'1 0.3 1006.1 6.7
2018-May-20 12:00N 60°16' W 146°32'0 0.0 1007.4 6.7
2018-May-20 06:00N 60°16' W 146°32'0 0.3 1010.5 7.2
2018-May-20 05:00N 60°16' W 146°31'1 0.6 1010.8 7.3
2018-May-20 04:00N 60°17' W 146°31'1 1.2 1011.3 7.4
2018-May-20 03:00N 60°16' W 146°32'1 0.6 1011.7 7.5
2018-May-20 02:00N 60°16' W 146°32'0 0.0 1012.4 7.6
2018-May-20 01:00N 60°16' W 146°32'0 0.0 1013.0 7.7
2018-May-20 00:00N 60°16' W 146°32'0 0.0 1013.6 7.8
2018-May-19 23:00N 60°16' W 146°32'0 0.0 1014.3 7.4
2018-May-19 22:00N 60°16' W 146°32'0 0.0 1014.7 7.4
2018-May-19 19:00N 60°16' W 146°32'0 0.0 1015.4 7.1
2018-May-19 18:00N 60°16' W 146°32'0 0.0 1015.4 6.9
2018-May-19 17:00N 60°16' W 146°32'0 0.0 1015.0 7.0
2018-May-19 16:00N 60°16' W 146°32'0 0.3 1014.9 7.1
2018-May-19 15:00N 60°16' W 146°32'1 1.1 1014.7 6.9
2018-May-19 14:00N 60°17' W 146°31'1 0.8 1014.7 6.9
2018-May-19 13:00N 60°16' W 146°32'0 0.3 1014.6 6.9
2018-May-19 12:00N 60°16' W 146°31'0 0.0 1014.7 6.8
2018-May-19 06:00N 60°16' W 146°32'0 0.3 1012.7 7.9
2018-May-19 05:00N 60°16' W 146°31'0 0.0 1012.5 8.8
2018-May-19 04:00N 60°16' W 146°31'0 0.3 1011.6 9.8
2018-May-19 03:00N 60°16' W 146°32'0 0.0 1010.1 11.9
2018-May-19 02:00N 60°16' W 146°32'0 0.0 1009.3 13.0
2018-May-19 01:00N 60°16' W 146°32'0 0.0 1010.2 14.4
2018-May-19 00:00N 60°16' W 146°32'0 0.0 1011.0 16.8
2018-May-18 23:00N 60°16' W 146°32'0 0.0 1011.4 13.6
2018-May-18 22:00N 60°16' W 146°32'0 0.0 1011.9 10.4
2018-May-18 19:00N 60°16' W 146°32'0 0.0 1013.9 9.6
2018-May-18 18:00N 60°16' W 146°32'0 0.0 1014.3 8.9
2018-May-18 17:00N 60°16' W 146°32'0 0.0 1014.8 7.6
2018-May-18 16:00N 60°16' W 146°32'0 0.0 1015.6 7.4
2018-May-18 15:00N 60°16' W 146°32'0 0.0 1016.3 7.1
2018-May-18 14:00N 60°16' W 146°32'0 0.3 1017.1 6.7
2018-May-18 13:00N 60°16' W 146°31'0 0.0 1018.1 6.7
2018-May-18 12:00N 60°16' W 146°31'0 0.0 1018.9 7.1
2018-May-18 06:00N 60°16' W 146°32'0 0.0 1021.8 7.4
2018-May-18 05:00N 60°16' W 146°32'0 0.0 1022.2 7.8
2018-May-18 04:00N 60°16' W 146°32'0 0.0 1022.7 7.7
2018-May-18 03:00N 60°16' W 146°32'0 0.0 1023.3 7.7
2018-May-18 02:00N 60°16' W 146°32'0 0.0 1023.8 7.5
2018-May-18 01:00N 60°16' W 146°32'0 0.0 1024.2 7.8
2018-May-18 00:00N 60°16' W 146°32'0 0.0 1024.6 7.3
2018-May-17 23:00N 60°16' W 146°32'0 0.0 1024.9 7.2
2018-May-17 22:00N 60°16' W 146°32'0 0.0 1025.0 6.8
2018-May-17 19:00N 60°16' W 146°32'0 0.0 1025.3 6.7
2018-May-17 18:00N 60°16' W 146°32'0 0.0 1025.3 6.7
2018-May-17 17:00N 60°16' W 146°32'0 0.3 1025.4 6.3
2018-May-17 16:00N 60°16' W 146°31'0 0.0 1025.5 6.3
2018-May-17 15:00N 60°16' W 146°31'0 0.3 1025.6 6.2
2018-May-17 14:00N 60°16' W 146°32'0 0.0 1025.6 5.7
2018-May-17 13:00N 60°16' W 146°32'0 0.0 1025.6 6.4
2018-May-17 12:00N 60°16' W 146°32'0 0.0 1026.0 6.8
2018-May-17 06:00N 60°16' W 146°31'0 0.3 1025.9 8.8
2018-May-17 05:00N 60°16' W 146°32'1 0.6 1025.8 10.6
2018-May-17 04:00N 60°16' W 146°32'0 0.0 1025.9 11.5
2018-May-17 03:00N 60°16' W 146°32'1 0.6 1025.9 13.1
2018-May-17 02:00N 60°16' W 146°32'0 0.0 1025.8 14.8
2018-May-17 01:00N 60°16' W 146°32'0 0.0 1026.0 24.5
2018-May-17 00:00N 60°16' W 146°32'0 0.0 1026.2 21.6
2018-May-16 23:00N 60°16' W 146°32'0 0.0 1026.2 15.6
2018-May-16 22:00N 60°16' W 146°32'0 0.0 1026.1 14.2
2018-May-16 19:00N 60°16' W 146°32'0 0.0 1025.1 9.1
2018-May-16 18:00N 60°16' W 146°32'0 0.0 1024.7 7.1
2018-May-16 17:00N 60°16' W 146°32'0 0.0 1024.4 6.4
2018-May-16 16:00N 60°16' W 146°32'0 0.0 1024.1 5.7
2018-May-16 15:00N 60°16' W 146°32'0 0.0 1023.8 5.5
2018-May-16 14:00N 60°16' W 146°32'0 0.0 1023.8 4.8
2018-May-16 13:00N 60°16' W 146°32'0 0.0 1023.8 4.3
2018-May-16 12:00N 60°16' W 146°32'0 0.0 1023.8 4.3
2018-May-16 07:00N 60°16' W 146°32'0 0.0 1023.4 6.9
2018-May-16 06:00N 60°16' W 146°32'0 0.3 1023.0 7.3
2018-May-16 05:00N 60°16' W 146°32'0 0.3 1022.7 9.8
2018-May-16 04:00N 60°16' W 146°32'0 0.3 1022.4 10.6
2018-May-16 03:00N 60°16' W 146°31'0 0.3 1022.5 11.5
2018-May-16 02:00N 60°16' W 146°32'0 0.0 1022.7 13.4
2018-May-16 01:00N 60°16' W 146°32'0 0.0 1022.7 21.4
2018-May-16 00:00N 60°16' W 146°32'0 0.3 1022.6 21.1
2018-May-15 23:00N 60°16' W 146°31'0 0.0 1022.6 17.9
2018-May-15 22:00N 60°16' W 146°31'0 0.0 1022.3 16.4
2018-May-15 20:00N 60°16' W 146°31'0 0.3 1021.7 7.8
2018-May-15 19:00N 60°16' W 146°32'0 0.3 1021.3 6.9
2018-May-15 18:00N 60°16' W 146°32'0 0.0 1020.7 8.2
2018-May-15 17:00N 60°16' W 146°32'0 0.3 1020.3 6.7
2018-May-15 16:00N 60°16' W 146°32'0 0.0 1019.9 5.3
2018-May-15 15:00N 60°16' W 146°32'0 0.0 1019.7 5.3
2018-May-15 14:00N 60°16' W 146°32'0 0.0 1019.4 4.6
2018-May-15 13:00N 60°16' W 146°32'0 0.0 1019.0 4.7
2018-May-15 12:00N 60°16' W 146°32'0 0.0 1018.5 4.9
2018-May-15 11:00N 60°16' W 146°32'0 0.1 1018.0 5.4
2018-May-15 06:00N 60°16' W 146°31'0 0.3 1015.6 6.7
2018-May-15 05:00N 60°16' W 146°32'0 0.0 1015.1 7.4
2018-May-15 04:00N 60°16' W 146°32'0 0.0 1014.6 7.1
2018-May-15 03:00N 60°16' W 146°32'0 0.0 1014.1 8.0
2018-May-15 02:00N 60°16' W 146°32'0 0.0 1014.2 9.2
2018-May-15 01:00N 60°16' W 146°32'0 0.0 1014.0 10.4
2018-May-14 23:00N 60°16' W 146°32'0 0.0 1013.6 10.0
2018-May-14 22:00N 60°16' W 146°32'0 0.0 1013.3 12.1
2018-May-14 18:00N 60°16' W 146°32'0 0.0 1011.7 7.1
2018-May-14 17:00N 60°16' W 146°32'0 0.0 1011.1 6.6
2018-May-14 16:00N 60°16' W 146°32'0 0.0 1010.3 5.8
2018-May-14 15:00N 60°16' W 146°32'1 0.6 1009.7 5.2
2018-May-14 14:00N 60°16' W 146°33'1 1.3 1009.3 5.0
2018-May-14 13:00N 60°17' W 146°32'0 0.0 1009.0 4.7
2018-May-14 12:00N 60°17' W 146°32'1 1.2 1008.6 4.9
2018-May-14 11:00N 60°16' W 146°32'0 0.0 1008.0 4.9
2018-May-14 07:00N 60°16' W 146°32'0 0.0 1006.3 6.3
2018-May-14 06:00N 60°16' W 146°32'1 0.6 1005.6 6.4
2018-May-14 05:00N 60°17' W 146°32'1 0.6 1005.3 6.5
2018-May-14 04:00N 60°16' W 146°32'0 0.0 1005.1 6.9
2018-May-14 03:00N 60°16' W 146°32'0 0.0 1005.3 6.7
2018-May-14 02:00N 60°16' W 146°32'0 0.0 1006.1 6.3
2018-May-14 01:00N 60°16' W 146°32'0 0.3 1005.7 6.2
2018-May-14 00:00N 60°16' W 146°31'0 0.0 1005.7 6.3
2018-May-13 23:00N 60°16' W 146°31'0 0.0 1006.2 6.7
2018-May-13 20:00N 60°16' W 146°31'0 0.3 1008.6 6.8
2018-May-13 19:00N 60°16' W 146°32'0 0.0 1010.2 6.8
2018-May-13 18:00N 60°16' W 146°32'0 0.0 1012.0 6.0
2018-May-13 17:00N 60°16' W 146°32'0 0.0 1012.8 6.1
2018-May-13 16:00N 60°16' W 146°32'0 0.0 1013.8 5.7
2018-May-13 15:00N 60°16' W 146°32'0 0.0 1015.0 5.5
2018-May-13 14:00N 60°16' W 146°32'0 0.0 1016.2 5.6
2018-May-13 13:00N 60°16' W 146°32'0 0.0 1017.4 5.6
2018-May-13 12:00N 60°16' W 146°32'0 0.0 1018.5 5.6
2018-May-13 11:00N 60°16' W 146°32'0 0.0 1019.6 5.7
2018-May-13 06:00N 60°16' W 146°32'0 0.0 1023.4 8.1
2018-May-13 05:00N 60°16' W 146°32'0 0.0 1023.8 10.0
2018-May-13 04:00N 60°16' W 146°32'0 0.0 1024.0 10.5
2018-May-13 03:00N 60°16' W 146°32'0 0.0 1024.7 10.1
2018-May-13 02:00N 60°16' W 146°32'1 0.7 1025.1 11.2
2018-May-13 01:00N 60°17' W 146°32'0 0.0 1026.1 12.1
2018-May-13 00:00N 60°17' W 146°32'0 0.0 1026.6 11.5
2018-May-12 23:00N 60°17' W 146°32'0 0.0 1026.9 10.5
2018-May-12 22:00N 60°17' W 146°32'1 0.2 1026.6 8.9
2018-May-12 19:00N 60°16' W 146°32'0 0.3 1026.5 7.1
2018-May-12 18:00N 60°16' W 146°32'   1026.3 6.5
Track history (hours):
 
Tides and Currents Weather Stations Pressure Air Temp Water Temp Dewpoint Dewpoint Depression Visibility Wind Speed Wind Dir Waves Ship Positions

Drifting buoy 21955

Last reported at 2018-May-22 18:00 UTC. Time now 2018-May-27 21:17 UTC.
Position N 60°16' W 146°32'.

Barometer 1004.7 mb
Water temperature 6.6 ° C

Date/timePositionNaut miles runAvg speedWind from/ knotsBaromVisibWave heightAir tempDewpointWater temp
2018-May-22 18:00N 60°16' W 146°32'0 0.0 1004.7 6.6
2018-May-22 17:00N 60°16' W 146°32'0 0.0 1004.2 6.5
2018-May-22 16:00N 60°16' W 146°32'0 0.0 1003.4 6.4
2018-May-22 15:00N 60°16' W 146°32'0 0.0 1003.1 6.2
2018-May-22 14:00N 60°16' W 146°32'0 0.0 1002.7 6.2
2018-May-22 13:00N 60°16' W 146°32'0 0.0 1002.7 6.2
2018-May-22 12:00N 60°16' W 146°32'0 0.0 1002.2 6.1
2018-May-22 11:00N 60°16' W 146°32'0 0.0 1001.9 6.2
2018-May-22 06:00N 60°16' W 146°32'0 0.3 1000.7 7.1
2018-May-22 05:00N 60°16' W 146°32'0 0.0 999.2 7.1
2018-May-22 04:00N 60°16' W 146°32'0 0.0 998.4 7.1
2018-May-22 03:00N 60°16' W 146°32'0 0.3 997.3 7.0
2018-May-22 02:00N 60°16' W 146°32'0 0.0 996.5 7.1
2018-May-22 01:00N 60°16' W 146°32'0 0.0 996.0 7.0
2018-May-22 00:00N 60°16' W 146°32'0 0.0 995.5 6.7
2018-May-21 23:00N 60°16' W 146°32'0 0.3 995.3 6.5
2018-May-21 22:00N 60°16' W 146°31'0 0.0 995.7 6.2
2018-May-21 21:00N 60°16' W 146°31'0 0.1 996.1 5.9
2018-May-21 19:00N 60°16' W 146°32'0 0.0 996.9 5.8
2018-May-21 18:00N 60°16' W 146°32'0 0.0 997.2 5.8
2018-May-21 17:00N 60°16' W 146°32'0 0.0 997.9 5.8
2018-May-21 16:00N 60°16' W 146°32'0 0.0 997.9 5.8
2018-May-21 15:00N 60°16' W 146°32'0 0.0 997.9 6.3
2018-May-21 14:00N 60°16' W 146°32'0 0.0 997.4 5.9
2018-May-21 13:00N 60°16' W 146°32'1 0.9 997.5 5.8
2018-May-21 12:00N 60°16' W 146°34'1 0.9 998.4 6.0
2018-May-21 11:00N 60°16' W 146°32'0 0.0 999.1 6.4
2018-May-21 06:00N 60°16' W 146°32'0 0.0 999.8 6.9
2018-May-21 05:00N 60°16' W 146°32'0 0.3 998.5 6.6
2018-May-21 04:00N 60°16' W 146°31'0 0.3 998.8 6.8
2018-May-21 03:00N 60°16' W 146°32'0 0.0 1000.0 6.9
2018-May-21 02:00N 60°16' W 146°32'0 0.0 1000.8 6.8
2018-May-21 01:00N 60°16' W 146°32'0 0.0 1001.7 6.9
2018-May-21 00:00N 60°16' W 146°32'0 0.0 1002.7 6.7
2018-May-20 23:00N 60°16' W 146°32'0 0.0 1003.5 6.9
2018-May-20 22:00N 60°16' W 146°32'0 0.0 1003.9 7.1
2018-May-20 20:00N 60°16' W 146°32'0 0.0 1004.2 7.1
2018-May-20 19:00N 60°16' W 146°32'0 0.0 1004.5 6.9
2018-May-20 17:00N 60°16' W 146°32'0 0.0 1005.3 6.7
2018-May-20 16:00N 60°16' W 146°32'0 0.0 1005.2 6.9
2018-May-20 15:00N 60°16' W 146°32'1 0.6 1005.6 6.7
2018-May-20 14:00N 60°17' W 146°32'1 0.3 1006.1 6.7
2018-May-20 12:00N 60°16' W 146°32'0 0.0 1007.4 6.7
2018-May-20 06:00N 60°16' W 146°32'0 0.3 1010.5 7.2
2018-May-20 05:00N 60°16' W 146°31'1 0.6 1010.8 7.3
2018-May-20 04:00N 60°17' W 146°31'1 1.2 1011.3 7.4
2018-May-20 03:00N 60°16' W 146°32'1 0.6 1011.7 7.5
2018-May-20 02:00N 60°16' W 146°32'0 0.0 1012.4 7.6
2018-May-20 01:00N 60°16' W 146°32'0 0.0 1013.0 7.7
2018-May-20 00:00N 60°16' W 146°32'0 0.0 1013.6 7.8
2018-May-19 23:00N 60°16' W 146°32'0 0.0 1014.3 7.4
2018-May-19 22:00N 60°16' W 146°32'0 0.0 1014.7 7.4
2018-May-19 19:00N 60°16' W 146°32'0 0.0 1015.4 7.1
2018-May-19 18:00N 60°16' W 146°32'0 0.0 1015.4 6.9
2018-May-19 17:00N 60°16' W 146°32'0 0.0 1015.0 7.0
2018-May-19 16:00N 60°16' W 146°32'0 0.3 1014.9 7.1
2018-May-19 15:00N 60°16' W 146°32'1 1.1 1014.7 6.9
2018-May-19 14:00N 60°17' W 146°31'1 0.8 1014.7 6.9
2018-May-19 13:00N 60°16' W 146°32'0 0.3 1014.6 6.9
2018-May-19 12:00N 60°16' W 146°31'0 0.0 1014.7 6.8
2018-May-19 06:00N 60°16' W 146°32'0 0.3 1012.7 7.9
2018-May-19 05:00N 60°16' W 146°31'0 0.0 1012.5 8.8
2018-May-19 04:00N 60°16' W 146°31'0 0.3 1011.6 9.8
2018-May-19 03:00N 60°16' W 146°32'0 0.0 1010.1 11.9
2018-May-19 02:00N 60°16' W 146°32'0 0.0 1009.3 13.0
2018-May-19 01:00N 60°16' W 146°32'0 0.0 1010.2 14.4
2018-May-19 00:00N 60°16' W 146°32'0 0.0 1011.0 16.8
2018-May-18 23:00N 60°16' W 146°32'0 0.0 1011.4 13.6
2018-May-18 22:00N 60°16' W 146°32'0 0.0 1011.9 10.4
2018-May-18 19:00N 60°16' W 146°32'0 0.0 1013.9 9.6
2018-May-18 18:00N 60°16' W 146°32'0 0.0 1014.3 8.9
2018-May-18 17:00N 60°16' W 146°32'0 0.0 1014.8 7.6
2018-May-18 16:00N 60°16' W 146°32'0 0.0 1015.6 7.4
2018-May-18 15:00N 60°16' W 146°32'0 0.0 1016.3 7.1
2018-May-18 14:00N 60°16' W 146°32'0 0.3 1017.1 6.7
2018-May-18 13:00N 60°16' W 146°31'0 0.0 1018.1 6.7
2018-May-18 12:00N 60°16' W 146°31'0 0.0 1018.9 7.1
2018-May-18 06:00N 60°16' W 146°32'0 0.0 1021.8 7.4
2018-May-18 05:00N 60°16' W 146°32'0 0.0 1022.2 7.8
2018-May-18 04:00N 60°16' W 146°32'0 0.0 1022.7 7.7
2018-May-18 03:00N 60°16' W 146°32'0 0.0 1023.3 7.7
2018-May-18 02:00N 60°16' W 146°32'0 0.0 1023.8 7.5
2018-May-18 01:00N 60°16' W 146°32'0 0.0 1024.2 7.8
2018-May-18 00:00N 60°16' W 146°32'0 0.0 1024.6 7.3
2018-May-17 23:00N 60°16' W 146°32'0 0.0 1024.9 7.2
2018-May-17 22:00N 60°16' W 146°32'0 0.0 1025.0 6.8
2018-May-17 19:00N 60°16' W 146°32'0 0.0 1025.3 6.7
2018-May-17 18:00N 60°16' W 146°32'0 0.0 1025.3 6.7
2018-May-17 17:00N 60°16' W 146°32'0 0.3 1025.4 6.3
2018-May-17 16:00N 60°16' W 146°31'0 0.0 1025.5 6.3
2018-May-17 15:00N 60°16' W 146°31'0 0.3 1025.6 6.2
2018-May-17 14:00N 60°16' W 146°32'0 0.0 1025.6 5.7
2018-May-17 13:00N 60°16' W 146°32'0 0.0 1025.6 6.4
2018-May-17 12:00N 60°16' W 146°32'0 0.0 1026.0 6.8
2018-May-17 06:00N 60°16' W 146°31'0 0.3 1025.9 8.8
2018-May-17 05:00N 60°16' W 146°32'1 0.6 1025.8 10.6
2018-May-17 04:00N 60°16' W 146°32'0 0.0 1025.9 11.5
2018-May-17 03:00N 60°16' W 146°32'1 0.6 1025.9 13.1
2018-May-17 02:00N 60°16' W 146°32'0 0.0 1025.8 14.8
2018-May-17 01:00N 60°16' W 146°32'0 0.0 1026.0 24.5
2018-May-17 00:00N 60°16' W 146°32'0 0.0 1026.2 21.6
2018-May-16 23:00N 60°16' W 146°32'0 0.0 1026.2 15.6
2018-May-16 22:00N 60°16' W 146°32'0 0.0 1026.1 14.2
2018-May-16 19:00N 60°16' W 146°32'0 0.0 1025.1 9.1
2018-May-16 18:00N 60°16' W 146°32'0 0.0 1024.7 7.1
2018-May-16 17:00N 60°16' W 146°32'0 0.0 1024.4 6.4
2018-May-16 16:00N 60°16' W 146°32'0 0.0 1024.1 5.7
2018-May-16 15:00N 60°16' W 146°32'0 0.0 1023.8 5.5
2018-May-16 14:00N 60°16' W 146°32'0 0.0 1023.8 4.8
2018-May-16 13:00N 60°16' W 146°32'0 0.0 1023.8 4.3
2018-May-16 12:00N 60°16' W 146°32'0 0.0 1023.8 4.3
2018-May-16 07:00N 60°16' W 146°32'0 0.0 1023.4 6.9
2018-May-16 06:00N 60°16' W 146°32'0 0.3 1023.0 7.3
2018-May-16 05:00N 60°16' W 146°32'0 0.3 1022.7 9.8
2018-May-16 04:00N 60°16' W 146°32'0 0.3 1022.4 10.6
2018-May-16 03:00N 60°16' W 146°31'0 0.3 1022.5 11.5
2018-May-16 02:00N 60°16' W 146°32'0 0.0 1022.7 13.4
2018-May-16 01:00N 60°16' W 146°32'0 0.0 1022.7 21.4
2018-May-16 00:00N 60°16' W 146°32'0 0.3 1022.6 21.1
2018-May-15 23:00N 60°16' W 146°31'0 0.0 1022.6 17.9
2018-May-15 22:00N 60°16' W 146°31'0 0.0 1022.3 16.4
2018-May-15 20:00N 60°16' W 146°31'0 0.3 1021.7 7.8
2018-May-15 19:00N 60°16' W 146°32'0 0.3 1021.3 6.9
2018-May-15 18:00N 60°16' W 146°32'0 0.0 1020.7 8.2
2018-May-15 17:00N 60°16' W 146°32'0 0.3 1020.3 6.7
2018-May-15 16:00N 60°16' W 146°32'0 0.0 1019.9 5.3
2018-May-15 15:00N 60°16' W 146°32'0 0.0 1019.7 5.3
2018-May-15 14:00N 60°16' W 146°32'0 0.0 1019.4 4.6
2018-May-15 13:00N 60°16' W 146°32'0 0.0 1019.0 4.7
2018-May-15 12:00N 60°16' W 146°32'0 0.0 1018.5 4.9
2018-May-15 11:00N 60°16' W 146°32'0 0.1 1018.0 5.4
2018-May-15 06:00N 60°16' W 146°31'0 0.3 1015.6 6.7
2018-May-15 05:00N 60°16' W 146°32'0 0.0 1015.1 7.4
2018-May-15 04:00N 60°16' W 146°32'0 0.0 1014.6 7.1
2018-May-15 03:00N 60°16' W 146°32'0 0.0 1014.1 8.0
2018-May-15 02:00N 60°16' W 146°32'0 0.0 1014.2 9.2
2018-May-15 01:00N 60°16' W 146°32'0 0.0 1014.0 10.4
2018-May-14 23:00N 60°16' W 146°32'0 0.0 1013.6 10.0
2018-May-14 22:00N 60°16' W 146°32'0 0.0 1013.3 12.1
2018-May-14 18:00N 60°16' W 146°32'0 0.0 1011.7 7.1
2018-May-14 17:00N 60°16' W 146°32'0 0.0 1011.1 6.6
2018-May-14 16:00N 60°16' W 146°32'0 0.0 1010.3 5.8
2018-May-14 15:00N 60°16' W 146°32'1 0.6 1009.7 5.2
2018-May-14 14:00N 60°16' W 146°33'1 1.3 1009.3 5.0
2018-May-14 13:00N 60°17' W 146°32'0 0.0 1009.0 4.7
2018-May-14 12:00N 60°17' W 146°32'1 1.2 1008.6 4.9
2018-May-14 11:00N 60°16' W 146°32'0 0.0 1008.0 4.9
2018-May-14 07:00N 60°16' W 146°32'0 0.0 1006.3 6.3
2018-May-14 06:00N 60°16' W 146°32'1 0.6 1005.6 6.4
2018-May-14 05:00N 60°17' W 146°32'1 0.6 1005.3 6.5
2018-May-14 04:00N 60°16' W 146°32'0 0.0 1005.1 6.9
2018-May-14 03:00N 60°16' W 146°32'0 0.0 1005.3 6.7
2018-May-14 02:00N 60°16' W 146°32'0 0.0 1006.1 6.3
2018-May-14 01:00N 60°16' W 146°32'0 0.3 1005.7 6.2
2018-May-14 00:00N 60°16' W 146°31'0 0.0 1005.7 6.3
2018-May-13 23:00N 60°16' W 146°31'0 0.0 1006.2 6.7
2018-May-13 20:00N 60°16' W 146°31'0 0.3 1008.6 6.8
2018-May-13 19:00N 60°16' W 146°32'0 0.0 1010.2 6.8
2018-May-13 18:00N 60°16' W 146°32'0 0.0 1012.0 6.0
2018-May-13 17:00N 60°16' W 146°32'0 0.0 1012.8 6.1
2018-May-13 16:00N 60°16' W 146°32'0 0.0 1013.8 5.7
2018-May-13 15:00N 60°16' W 146°32'0 0.0 1015.0 5.5
2018-May-13 14:00N 60°16' W 146°32'0 0.0 1016.2 5.6
2018-May-13 13:00N 60°16' W 146°32'0 0.0 1017.4 5.6
2018-May-13 12:00N 60°16' W 146°32'0 0.0 1018.5 5.6
2018-May-13 11:00N 60°16' W 146°32'0 0.0 1019.6 5.7
2018-May-13 06:00N 60°16' W 146°32'0 0.0 1023.4 8.1
2018-May-13 05:00N 60°16' W 146°32'0 0.0 1023.8 10.0
2018-May-13 04:00N 60°16' W 146°32'0 0.0 1024.0 10.5
2018-May-13 03:00N 60°16' W 146°32'0 0.0 1024.7 10.1
2018-May-13 02:00N 60°16' W 146°32'1 0.7 1025.1 11.2
2018-May-13 01:00N 60°17' W 146°32'0 0.0 1026.1 12.1
2018-May-13 00:00N 60°17' W 146°32'0 0.0 1026.6 11.5
2018-May-12 23:00N 60°17' W 146°32'0 0.0 1026.9 10.5
2018-May-12 22:00N 60°17' W 146°32'1 0.2 1026.6 8.9
2018-May-12 19:00N 60°16' W 146°32'0 0.3 1026.5 7.1
2018-May-12 18:00N 60°16' W 146°32'   1026.3 6.5

Dump ship's entire track history